createdAt,value
2023-04-21T00:00:09.332Z,100067.97
2023-04-21T00:02:39.976Z,100068.63
2023-04-21T00:05:10.702Z,100063.00
2023-04-21T00:07:39.524Z,100075.19
2023-04-21T00:10:09.774Z,100068.47
2023-04-21T00:12:38.368Z,100067.53
2023-04-21T00:15:10.017Z,100070.66
2023-04-21T00:17:39.245Z,100075.31
2023-04-21T00:20:10.619Z,100070.09
2023-04-21T00:22:39.089Z,100069.59
2023-04-21T00:25:08.749Z,100076.00
2023-04-21T00:27:37.122Z,100057.78
2023-04-21T00:30:09.595Z,100063.56
2023-04-21T00:32:38.883Z,100060.94
2023-04-21T00:35:08.194Z,100065.72
2023-04-21T00:37:36.706Z,100059.81
2023-04-21T00:40:06.787Z,100063.22
2023-04-21T00:42:35.192Z,100056.19
2023-04-21T00:45:03.793Z,100051.91
2023-04-21T00:47:33.986Z,100051.44
2023-04-21T00:50:03.029Z,100049.31
2023-04-21T00:52:32.432Z,100056.19
2023-04-21T00:55:01.456Z,100044.22
2023-04-21T00:57:30.691Z,100049.13
2023-04-21T00:59:59.102Z,100048.78
2023-04-21T01:02:28.520Z,100052.72
2023-04-21T01:04:58.487Z,100049.13
2023-04-21T01:07:27.333Z,100043.69
2023-04-21T01:09:56.093Z,100036.03
2023-04-21T01:12:24.879Z,100039.03
2023-04-21T01:14:53.257Z,100032.31
2023-04-21T01:17:21.754Z,100045.47
2023-04-21T01:19:51.366Z,100032.50
2023-04-21T01:22:21.112Z,100030.38
2023-04-21T01:24:50.592Z,100027.59
2023-04-21T01:27:21.517Z,100024.19
2023-04-21T01:29:52.920Z,100023.88
2023-04-21T01:32:25.266Z,100024.47
2023-04-21T01:34:55.059Z,100030.03
2023-04-21T01:37:28.760Z,100031.47
2023-04-21T01:40:00.247Z,100023.81
2023-04-21T01:42:30.779Z,100032.66
2023-04-21T01:45:00.134Z,100030.88
2023-04-21T01:47:28.783Z,100038.38
2023-04-21T01:49:57.163Z,100035.13
2023-04-21T01:52:27.083Z,100033.66
2023-04-21T01:54:56.456Z,100032.34
2023-04-21T01:57:24.887Z,100035.59
2023-04-21T01:59:53.495Z,100033.63
2023-04-21T02:02:22.130Z,100029.88
2023-04-21T02:04:52.558Z,100028.56
2023-04-21T02:07:20.955Z,100030.72
2023-04-21T02:09:50.713Z,100045.00
2023-04-21T02:12:19.185Z,100029.75
2023-04-21T02:14:48.259Z,100041.72
2023-04-21T02:17:16.796Z,100041.38
2023-04-21T02:19:45.528Z,100038.25
2023-04-21T02:22:13.910Z,100032.19
2023-04-21T02:24:42.369Z,100041.69
2023-04-21T02:27:12.166Z,100039.44
2023-04-21T02:29:40.741Z,100042.13
2023-04-21T02:32:22.351Z,100043.84
2023-04-21T02:34:53.726Z,100038.31
2023-04-21T02:37:22.938Z,100035.31
2023-04-21T02:39:54.731Z,100040.44
2023-04-21T02:42:24.491Z,100054.50
2023-04-21T02:44:54.059Z,100054.81
2023-04-21T02:47:22.419Z,100054.41
2023-04-21T02:49:50.873Z,100045.03
2023-04-21T02:52:19.402Z,100045.50
2023-04-21T02:54:47.830Z,100048.16
2023-04-21T02:57:16.183Z,100043.53
2023-04-21T02:59:46.053Z,100042.56
2023-04-21T03:02:14.449Z,100047.81
2023-04-21T03:04:42.955Z,100028.09
2023-04-21T03:07:14.260Z,100041.31
2023-04-21T03:09:42.902Z,100039.81
2023-04-21T03:12:11.332Z,100034.09
2023-04-21T03:14:39.729Z,100042.97
2023-04-21T03:17:09.816Z,100041.19
2023-04-21T03:19:38.216Z,100048.22
2023-04-21T03:22:07.022Z,100049.56
2023-04-21T03:24:35.520Z,100042.34
2023-04-21T03:27:03.867Z,100054.84
2023-04-21T03:29:32.316Z,100061.72
2023-04-21T03:32:00.703Z,100061.56
2023-04-21T03:34:30.561Z,100055.16
2023-04-21T03:37:00.973Z,100043.66
2023-04-21T03:39:29.405Z,100034.50
2023-04-21T03:41:57.897Z,100042.19
2023-04-21T03:44:28.752Z,100042.00
2023-04-21T03:46:57.643Z,100048.09
2023-04-21T03:49:26.311Z,100040.56
2023-04-21T03:51:56.105Z,100037.97
2023-04-21T03:54:24.417Z,100048.13
2023-04-21T03:56:52.797Z,100044.03
2023-04-21T03:59:21.519Z,100045.84
2023-04-21T04:01:50.033Z,100042.09
2023-04-21T04:04:18.805Z,100027.03
2023-04-21T04:06:47.277Z,100040.28
2023-04-21T04:09:17.158Z,100047.31
2023-04-21T04:11:45.717Z,100047.00
2023-04-21T04:14:14.108Z,100047.66
2023-04-21T04:16:42.592Z,100027.84
2023-04-21T04:19:11.601Z,100045.19
2023-04-21T04:21:40.010Z,100046.31
2023-04-21T04:24:08.970Z,100056.66
2023-04-21T04:26:40.107Z,100050.41
2023-04-21T04:29:10.708Z,100037.66
2023-04-21T04:31:39.372Z,100043.69
2023-04-21T04:34:09.769Z,100047.19
2023-04-21T04:36:38.128Z,100041.56
2023-04-21T04:39:08.958Z,100039.97
2023-04-21T04:41:39.575Z,100036.69
2023-04-21T04:44:09.018Z,100042.25
2023-04-21T04:46:37.629Z,100038.16
2023-04-21T04:49:06.582Z,100034.38
2023-04-21T04:51:35.014Z,100019.63
2023-04-21T04:54:03.439Z,100022.25
2023-04-21T04:56:32.212Z,100025.03
2023-04-21T04:59:01.964Z,100027.16
2023-04-21T05:01:31.291Z,100029.44
2023-04-21T05:04:00.066Z,100036.81
2023-04-21T05:06:29.672Z,100033.19
2023-04-21T05:08:58.024Z,100041.22
2023-04-21T05:11:26.490Z,100039.25
2023-04-21T05:13:54.908Z,100042.50
2023-04-21T05:16:24.668Z,100040.22
2023-04-21T05:18:54.374Z,100039.56
2023-04-21T05:21:27.769Z,100044.63
2023-04-21T05:23:57.075Z,100043.31
2023-04-21T05:26:27.524Z,100034.28
2023-04-21T05:28:56.646Z,100037.72
2023-04-21T05:31:26.852Z,100037.91
2023-04-21T05:33:55.375Z,100031.47
2023-04-21T05:36:24.977Z,100038.34
2023-04-21T05:38:54.147Z,100040.81
2023-04-21T05:41:22.767Z,100040.13
2023-04-21T05:43:51.148Z,100051.56
2023-04-21T05:46:19.569Z,100050.25
2023-04-21T05:48:49.328Z,100042.03
2023-04-21T05:51:17.864Z,100032.69
2023-04-21T05:53:47.270Z,100042.81
2023-04-21T05:56:15.768Z,100042.47
2023-04-21T05:58:44.124Z,100031.66
2023-04-21T06:01:13.064Z,100009.56
2023-04-21T06:03:41.633Z,100049.38
2023-04-21T06:06:11.625Z,100041.00
2023-04-21T06:08:40.017Z,100040.78
2023-04-21T06:11:08.625Z,100038.19
2023-04-21T06:13:38.593Z,100050.75
2023-04-21T06:16:08.143Z,100055.50
2023-04-21T06:18:36.639Z,100044.16
2023-04-21T06:21:05.960Z,100033.78
2023-04-21T06:23:35.767Z,100036.84
2023-04-21T06:26:06.884Z,100036.53
2023-04-21T06:28:36.674Z,100046.00
2023-04-21T06:31:08.745Z,100038.41
2023-04-21T06:33:37.910Z,100032.53
2023-04-21T06:36:07.357Z,100029.75
2023-04-21T06:38:37.019Z,100040.91
2023-04-21T06:41:06.595Z,100055.88
2023-04-21T06:43:34.972Z,100044.25
2023-04-21T06:46:03.355Z,100042.91
2023-04-21T06:48:31.906Z,100035.66
2023-04-21T06:51:00.629Z,100038.50
2023-04-21T06:53:28.983Z,100050.91
2023-04-21T06:55:58.767Z,100040.44
2023-04-21T06:58:27.217Z,100038.84
2023-04-21T07:00:55.763Z,100047.28
2023-04-21T07:03:24.476Z,100038.75
2023-04-21T07:05:53.222Z,100047.13
2023-04-21T07:08:21.601Z,100044.47
2023-04-21T07:10:50.018Z,100040.38
2023-04-21T07:13:19.747Z,100039.56
2023-04-21T07:15:48.158Z,100007.34
2023-04-21T07:18:16.652Z,100050.56
2023-04-21T07:20:45.206Z,100053.47
2023-04-21T07:23:13.716Z,100034.94
2023-04-21T07:25:42.097Z,100043.41
2023-04-21T07:28:11.063Z,100041.00
2023-04-21T07:30:40.870Z,100039.13
2023-04-21T07:33:09.620Z,100043.91
2023-04-21T07:35:38.229Z,100047.47
2023-04-21T07:38:06.770Z,100047.53
2023-04-21T07:40:35.105Z,100048.50
2023-04-21T07:43:03.581Z,100047.53
2023-04-21T07:45:31.999Z,100051.00
2023-04-21T07:48:01.878Z,100049.81
2023-04-21T07:50:30.305Z,100050.03
2023-04-21T07:52:58.620Z,100040.22
2023-04-21T07:55:27.018Z,100040.28
2023-04-21T07:57:55.914Z,100042.16
2023-04-21T08:00:24.617Z,100040.63
2023-04-21T08:02:53.096Z,100034.31
2023-04-21T08:05:22.995Z,100032.72
2023-04-21T08:07:51.494Z,100034.38
2023-04-21T08:10:19.937Z,100029.63
2023-04-21T08:12:48.325Z,100024.84
2023-04-21T08:15:16.723Z,100022.66
2023-04-21T08:17:45.892Z,100027.72
2023-04-21T08:20:14.915Z,100034.53
2023-04-21T08:22:47.280Z,100030.44
2023-04-21T08:25:16.514Z,100028.81
2023-04-21T08:27:46.070Z,100034.94
2023-04-21T08:30:15.664Z,100028.75
2023-04-21T08:32:44.669Z,100034.72
2023-04-21T08:35:13.249Z,100039.03
2023-04-21T08:37:41.788Z,100034.66
2023-04-21T08:40:12.833Z,100034.84
2023-04-21T08:42:41.349Z,100032.44
2023-04-21T08:45:12.546Z,100026.47
2023-04-21T08:47:42.747Z,100023.16
2023-04-21T08:50:15.675Z,100021.72
2023-04-21T08:52:44.170Z,100013.78
2023-04-21T08:55:15.355Z,100023.38
2023-04-21T08:57:43.891Z,100019.13
2023-04-21T09:00:13.849Z,100026.34
2023-04-21T09:03:00.818Z,100023.63
2023-04-21T09:05:32.112Z,100036.03
2023-04-21T09:08:11.989Z,100028.69
2023-04-21T09:10:52.468Z,100018.88
2023-04-21T09:13:23.355Z,100026.59
2023-04-21T09:15:53.313Z,100026.97
2023-04-21T09:18:24.167Z,100013.13
2023-04-21T09:21:07.844Z,100017.38
2023-04-21T09:23:48.617Z,100029.16
2023-04-21T09:26:21.357Z,100032.81
2023-04-21T09:28:52.028Z,100021.56
2023-04-21T09:31:24.596Z,100027.69
2023-04-21T09:33:59.631Z,100035.63
2023-04-21T09:36:31.993Z,100032.09
2023-04-21T09:39:29.029Z,100035.00
2023-04-21T09:41:52.761Z,100034.16
2023-04-21T09:44:22.446Z,100037.81
2023-04-21T09:46:52.983Z,100028.28
2023-04-21T09:49:24.983Z,100031.78
2023-04-21T09:54:31.671Z,100028.41
2023-04-21T09:57:05.440Z,100024.88
2023-04-21T09:59:37.015Z,100025.53
2023-04-21T10:02:08.213Z,100022.69
2023-04-21T10:04:43.190Z,100038.88
2023-04-21T10:07:12.692Z,100024.03
2023-04-21T10:09:47.151Z,100021.44
2023-04-21T10:12:17.382Z,100016.97
2023-04-21T10:14:45.728Z,100016.13
2023-04-21T10:17:15.032Z,100001.25
2023-04-21T10:19:51.543Z,100005.44
2023-04-21T10:22:29.737Z,100004.75
2023-04-21T10:25:00.321Z,99998.41
2023-04-21T10:27:39.293Z,99984.13
2023-04-21T10:30:22.666Z,99991.84
2023-04-21T10:33:04.703Z,99988.47
2023-04-21T10:36:00.993Z,99983.66
2023-04-21T10:38:36.097Z,99989.38
2023-04-21T10:41:28.279Z,99988.53
2023-04-21T10:43:59.625Z,99986.56
2023-04-21T10:46:36.183Z,99974.78
2023-04-21T10:49:09.493Z,99987.38
2023-04-21T10:52:06.509Z,99988.75
2023-04-21T10:54:46.438Z,99985.47
2023-04-21T10:57:17.474Z,99981.38
2023-04-21T10:59:49.472Z,99981.34
2023-04-21T11:02:19.908Z,99989.91
2023-04-21T11:04:52.814Z,99983.78
2023-04-21T11:07:23.209Z,99971.84
2023-04-21T11:09:59.825Z,99975.66
2023-04-21T11:12:30.793Z,99964.03
2023-04-21T11:15:00.859Z,99963.03
2023-04-21T11:17:29.251Z,99965.19
2023-04-21T11:19:58.188Z,99969.44
2023-04-21T11:22:27.914Z,99960.25
2023-04-21T11:24:58.598Z,99955.59
2023-04-21T11:27:30.018Z,99953.44
2023-04-21T11:30:00.088Z,99952.53
2023-04-21T11:32:29.270Z,99957.41
2023-04-21T11:34:57.857Z,99946.03
2023-04-21T11:37:28.192Z,99937.47
2023-04-21T11:40:00.579Z,99955.94
2023-04-21T11:42:29.822Z,99939.22
2023-04-21T11:45:00.689Z,99944.91
2023-04-21T11:47:30.191Z,99947.41
2023-04-21T11:50:00.554Z,99941.50
2023-04-21T11:52:32.892Z,99943.59
2023-04-21T11:55:03.111Z,99930.91
2023-04-21T11:57:33.503Z,99927.34
2023-04-21T12:00:07.935Z,99934.19
2023-04-21T12:02:36.670Z,99933.16
2023-04-21T12:05:08.093Z,99923.81
2023-04-21T12:07:38.888Z,99926.53
2023-04-21T12:10:12.694Z,99930.25
2023-04-21T12:12:41.841Z,99928.03
2023-04-21T12:15:13.844Z,99916.34
2023-04-21T12:17:46.015Z,99908.09
2023-04-21T12:20:17.638Z,99912.81
2023-04-21T12:22:46.639Z,99908.34
2023-04-21T12:25:15.373Z,99908.34
2023-04-21T12:27:50.143Z,99902.78
2023-04-21T12:30:20.537Z,99910.00
2023-04-21T12:32:49.024Z,99913.69
2023-04-21T12:35:17.968Z,99908.66
2023-04-21T12:37:46.815Z,99904.34
2023-04-21T12:40:15.288Z,99904.84
2023-04-21T12:42:43.698Z,99902.53
2023-04-21T12:45:13.720Z,99907.59
2023-04-21T12:47:46.254Z,99907.28
2023-04-21T12:50:15.719Z,99894.41
2023-04-21T12:52:44.081Z,99889.25
2023-04-21T12:55:13.413Z,99884.19
2023-04-21T12:57:41.876Z,99879.06
2023-04-21T13:00:13.037Z,99880.53
2023-04-21T13:02:43.145Z,99879.94
2023-04-21T13:05:13.309Z,99884.38
2023-04-21T13:07:41.941Z,99881.28
2023-04-21T13:10:11.443Z,99877.13
2023-04-21T13:12:39.819Z,99872.59
2023-04-21T13:15:10.007Z,99863.31
2023-04-21T13:17:38.328Z,99856.34
2023-04-21T13:20:09.531Z,99864.38
2023-04-21T13:22:37.954Z,99852.97
2023-04-21T13:25:07.519Z,99858.09
2023-04-21T13:27:38.232Z,99844.41
2023-04-21T13:30:09.786Z,99839.19
2023-04-21T13:32:38.869Z,99842.47
2023-04-21T13:35:10.735Z,99827.91
2023-04-21T13:37:39.752Z,99829.63
2023-04-21T13:40:10.949Z,99823.53
2023-04-21T13:42:40.386Z,99821.13
2023-04-21T13:45:10.282Z,99820.25
2023-04-21T13:47:38.845Z,99811.88
2023-04-21T13:50:10.507Z,99815.13
2023-04-21T13:52:38.946Z,99796.97
2023-04-21T13:55:08.484Z,99790.97
2023-04-21T13:57:37.109Z,99787.03
2023-04-21T14:00:07.037Z,99782.63
2023-04-21T14:02:35.615Z,99784.69
2023-04-21T14:05:04.867Z,99785.72
2023-04-21T14:07:35.869Z,99766.75
2023-04-21T14:10:05.080Z,99772.63
2023-04-21T14:12:33.443Z,99765.47
2023-04-21T14:15:01.869Z,99754.94
2023-04-21T14:17:30.784Z,99760.56
2023-04-21T14:19:59.331Z,99755.69
2023-04-21T14:22:28.286Z,99756.00
2023-04-21T14:24:58.274Z,99743.81
2023-04-21T14:27:26.674Z,99736.94
2023-04-21T14:29:55.124Z,99733.16
2023-04-21T14:32:23.762Z,99730.16
2023-04-21T14:34:53.569Z,99724.44
2023-04-21T14:37:22.807Z,99719.00
2023-04-21T14:39:51.306Z,99718.53
2023-04-21T14:42:21.212Z,99710.81
2023-04-21T14:44:49.674Z,99703.63
2023-04-21T14:47:18.354Z,99705.09
2023-04-21T14:49:47.275Z,99710.69
2023-04-21T14:52:15.764Z,99702.28
2023-04-21T14:54:44.145Z,99707.94
2023-04-21T14:59:46.749Z,99698.50
2023-04-21T15:02:15.846Z,99693.81
2023-04-21T15:04:44.613Z,99683.94
2023-04-21T15:07:13.459Z,99677.94
2023-04-21T15:09:45.594Z,99687.56
2023-04-21T15:12:14.723Z,99684.75
2023-04-21T15:14:44.610Z,99679.50
2023-04-21T15:17:13.188Z,99672.31
2023-04-21T15:19:41.764Z,99675.84
2023-04-21T15:22:12.156Z,99664.34
2023-04-21T15:24:40.894Z,99665.50
2023-04-21T15:27:09.322Z,99659.03
2023-04-21T15:29:37.862Z,99663.66
2023-04-21T15:32:07.918Z,99641.25
2023-04-21T15:34:36.412Z,99645.84
2023-04-21T15:37:04.786Z,99646.28
2023-04-21T15:39:33.321Z,99653.56
2023-04-21T15:42:01.929Z,99637.91
2023-04-21T15:44:30.334Z,99643.00
2023-04-21T15:46:58.847Z,99629.97
2023-04-21T15:49:28.973Z,99633.03
2023-04-21T15:51:59.639Z,99634.06
2023-04-21T15:54:28.142Z,99634.16
2023-04-21T15:56:57.626Z,99636.09
2023-04-21T15:59:26.399Z,99625.75
2023-04-21T16:01:56.856Z,99632.19
2023-04-21T16:04:26.000Z,99617.97
2023-04-21T16:06:56.211Z,99614.31
2023-04-21T16:09:24.670Z,99599.88
2023-04-21T16:11:53.173Z,99597.44
2023-04-21T16:14:21.799Z,99592.41
2023-04-21T16:16:50.167Z,99588.56
2023-04-21T16:19:18.730Z,99574.25
2023-04-21T16:21:47.228Z,99583.66
2023-04-21T16:24:20.308Z,99580.38
2023-04-21T16:26:48.987Z,99573.22
2023-04-21T16:29:17.579Z,99578.81
2023-04-21T16:31:46.577Z,99574.09
2023-04-21T16:34:16.241Z,99573.75
2023-04-21T16:36:45.227Z,99576.88
2023-04-21T16:39:13.626Z,99578.19
2023-04-21T16:41:43.349Z,99577.03
2023-04-21T16:44:11.745Z,99573.50
2023-04-21T16:46:40.868Z,99561.41
2023-04-21T16:49:09.376Z,99565.50
2023-04-21T16:51:40.042Z,99566.97
2023-04-21T16:54:08.485Z,99569.13
2023-04-21T16:56:36.888Z,99567.16
2023-04-21T16:59:08.094Z,99564.75
2023-04-21T17:01:36.576Z,99563.94
2023-04-21T17:04:05.537Z,99569.91
2023-04-21T17:06:34.324Z,99566.34
2023-04-21T17:09:02.806Z,99576.78
2023-04-21T17:11:32.628Z,99582.38
2023-04-21T17:14:01.136Z,99574.91
2023-04-21T17:16:31.025Z,99580.81
2023-04-21T17:18:59.952Z,99587.63
2023-04-21T17:21:29.201Z,99584.66
2023-04-21T17:23:57.719Z,99594.59
2023-04-21T17:26:26.375Z,99588.81
2023-04-21T17:28:54.777Z,99593.81
2023-04-21T17:31:23.258Z,99596.25
2023-04-21T17:33:53.519Z,99603.13
2023-04-21T17:36:22.117Z,99599.19
2023-04-21T17:38:51.061Z,99601.69
2023-04-21T17:41:20.055Z,99606.63
2023-04-21T17:43:48.447Z,99604.16
2023-04-21T17:46:16.969Z,99609.44
2023-04-21T17:48:45.823Z,99602.19
2023-04-21T17:51:15.687Z,99591.75
2023-04-21T17:53:44.139Z,99598.88
2023-04-21T17:56:14.425Z,99605.47
2023-04-21T17:58:42.978Z,99604.78
2023-04-21T18:01:11.408Z,99606.56
2023-04-21T18:03:41.408Z,99615.00
2023-04-21T18:06:11.374Z,99624.63
2023-04-21T18:08:41.435Z,99637.91
2023-04-21T18:11:11.554Z,99622.47
2023-04-21T18:13:40.001Z,99634.88
2023-04-21T18:16:08.730Z,99623.44
2023-04-21T18:18:37.613Z,99623.03
2023-04-21T18:21:06.318Z,99617.84
2023-04-21T18:23:35.797Z,99613.34
2023-04-21T18:26:05.890Z,99621.69
2023-04-21T18:28:34.330Z,99613.28
2023-04-21T18:31:02.788Z,99621.34
2023-04-21T18:33:31.282Z,99610.34
2023-04-21T18:35:59.651Z,99617.75
2023-04-21T18:38:28.039Z,99610.47
2023-04-21T18:40:57.097Z,99609.91
2023-04-21T18:43:26.946Z,99608.97
2023-04-21T18:45:55.524Z,99621.00
2023-04-21T18:48:23.903Z,99607.25
2023-04-21T18:50:52.304Z,99615.56
2023-04-21T18:53:20.726Z,99625.88
2023-04-21T18:55:49.170Z,99616.63
2023-04-21T18:58:17.682Z,99638.13
2023-04-21T19:00:47.507Z,99632.22
2023-04-21T19:03:16.138Z,99633.50
2023-04-21T19:05:44.653Z,99630.72
2023-04-21T19:08:12.972Z,99627.50
2023-04-21T19:10:41.500Z,99629.53
2023-04-21T19:13:10.324Z,99641.94
2023-04-21T19:15:39.060Z,99634.06
2023-04-21T19:18:08.902Z,99631.03
2023-04-21T19:20:37.907Z,99622.16
2023-04-21T19:23:06.354Z,99622.03
2023-04-21T19:25:35.238Z,99622.47
2023-04-21T19:28:04.295Z,99613.22
2023-04-21T19:30:32.868Z,99629.53
2023-04-21T19:33:01.338Z,99622.00
2023-04-21T19:35:31.560Z,99625.91
2023-04-21T19:38:00.213Z,99625.09
2023-04-21T19:40:29.239Z,99630.66
2023-04-21T19:42:58.670Z,99614.94
2023-04-21T19:45:27.968Z,99629.72
2023-04-21T19:47:56.458Z,99630.78
2023-04-21T19:50:24.985Z,99638.97
2023-04-21T19:52:54.854Z,99640.69
2023-04-21T19:55:23.378Z,99646.34
2023-04-21T19:57:52.073Z,99647.84
2023-04-21T20:00:20.791Z,99648.66
2023-04-21T20:02:49.353Z,99652.00
2023-04-21T20:05:17.937Z,99641.38
2023-04-21T20:07:46.838Z,99648.41
2023-04-21T20:10:16.736Z,99643.91
2023-04-21T20:12:45.184Z,99639.50
2023-04-21T20:15:13.777Z,99649.66
2023-04-21T20:17:42.583Z,99652.78
2023-04-21T20:20:13.104Z,99652.03
2023-04-21T20:22:41.642Z,99651.88
2023-04-21T20:25:10.965Z,99687.75
2023-04-21T20:27:40.853Z,99710.03
2023-04-21T20:30:10.320Z,99717.91
2023-04-21T20:32:38.721Z,99709.59
2023-04-21T20:35:08.249Z,99691.81
2023-04-21T20:37:37.459Z,99692.97
2023-04-21T20:40:08.385Z,99692.47
2023-04-21T20:42:36.865Z,99699.03
2023-04-21T20:45:09.437Z,99697.03
2023-04-21T20:47:38.006Z,99687.81
2023-04-21T20:50:08.262Z,99684.66
2023-04-21T20:52:36.759Z,99682.00
2023-04-21T20:55:05.498Z,99671.53
2023-04-21T20:57:34.064Z,99652.91
2023-04-21T21:00:04.830Z,99671.53
2023-04-21T21:02:34.781Z,99683.75
2023-04-21T21:05:04.261Z,99673.63
2023-04-21T21:07:33.199Z,99671.38
2023-04-21T21:10:01.727Z,99666.34
2023-04-21T21:12:30.159Z,99672.97
2023-04-21T21:14:58.522Z,99678.13
2023-04-21T21:17:26.998Z,99671.84
2023-04-21T21:19:57.125Z,99656.59
2023-04-21T21:22:25.546Z,99658.00
2023-04-21T21:24:53.874Z,99662.91
2023-04-21T21:27:22.357Z,99653.97
2023-04-21T21:29:50.851Z,99666.31
2023-04-21T21:32:19.239Z,99675.91
2023-04-21T21:34:48.232Z,99676.28
2023-04-21T21:37:18.008Z,99670.63
2023-04-21T21:39:46.372Z,99674.44
2023-04-21T21:42:14.772Z,99666.72
2023-04-21T21:44:43.267Z,99672.03
2023-04-21T21:47:11.852Z,99667.22
2023-04-21T21:49:40.799Z,99648.53
2023-04-21T21:52:09.321Z,99677.81
2023-04-21T21:54:39.329Z,99680.81
2023-04-21T21:57:07.776Z,99678.72
2023-04-21T21:59:36.505Z,99664.88
2023-04-21T22:02:05.490Z,99672.38
2023-04-21T22:04:33.936Z,99677.09
2023-04-21T22:07:03.305Z,99676.72
2023-04-21T22:09:31.730Z,99682.47
2023-04-21T22:12:02.117Z,99657.50
2023-04-21T22:14:30.897Z,99684.53
2023-04-21T22:16:59.212Z,99682.69
2023-04-21T22:19:27.764Z,99680.81
2023-04-21T22:21:56.546Z,99694.91
2023-04-21T22:24:25.069Z,99691.66
2023-04-21T22:26:53.494Z,99689.88
2023-04-21T22:29:23.262Z,99682.56
2023-04-21T22:31:51.801Z,99684.97
2023-04-21T22:34:20.303Z,99691.50
2023-04-21T22:36:48.668Z,99683.34
2023-04-21T22:39:17.449Z,99687.88
2023-04-21T22:41:45.972Z,99689.94
2023-04-21T22:44:14.599Z,99686.50
2023-04-21T22:46:44.428Z,99681.41
2023-04-21T22:49:13.020Z,99683.69
2023-04-21T22:51:42.277Z,99696.53
2023-04-21T22:54:10.732Z,99694.09
2023-04-21T22:56:39.150Z,99693.09
2023-04-21T22:59:08.311Z,99692.09
2023-04-21T23:01:36.696Z,99698.09
2023-04-21T23:04:06.555Z,99704.78
2023-04-21T23:06:35.079Z,99705.59
2023-04-21T23:09:04.171Z,99688.13
2023-04-21T23:11:32.684Z,99690.56
2023-04-21T23:14:01.054Z,99707.69
2023-04-21T23:16:29.560Z,99703.63
2023-04-21T23:18:57.902Z,99692.84
2023-04-21T23:21:27.675Z,99703.63
2023-04-21T23:23:56.056Z,99700.59
2023-04-21T23:26:26.681Z,99694.31
2023-04-21T23:28:55.055Z,99701.25
2023-04-21T23:31:23.513Z,99692.91
2023-04-21T23:33:52.073Z,99706.34
2023-04-21T23:36:20.509Z,99697.81
2023-04-21T23:38:50.275Z,99674.22
2023-04-21T23:41:18.690Z,99699.28
2023-04-21T23:43:47.097Z,99693.16
2023-04-21T23:46:16.582Z,99695.00
2023-04-21T23:48:45.317Z,99684.63
2023-04-21T23:51:14.007Z,99683.25
2023-04-21T23:53:42.505Z,99691.56
2023-04-21T23:56:12.297Z,99692.84
2023-04-21T23:58:40.797Z,99685.91
